createdAt,value
2019-02-16T00:01:33.682Z,101871.58
2019-02-16T00:03:08.468Z,101873.39
2019-02-16T00:04:43.289Z,101872.33
2019-02-16T00:06:18.118Z,101872.81
2019-02-16T00:07:53.201Z,101872.67
2019-02-16T00:09:28.349Z,101864.88
2019-02-16T00:11:03.143Z,101864.52
2019-02-16T00:12:38.206Z,101866.07
2019-02-16T00:14:13.262Z,101863.06
2019-02-16T00:15:48.050Z,101865.62
2019-02-16T00:17:23.089Z,101861.11
2019-02-16T00:18:57.898Z,101868.91
2019-02-16T00:20:32.950Z,101863.31
2019-02-16T00:22:07.745Z,101859.55
2019-02-16T00:23:42.538Z,101859.48
2019-02-16T00:25:17.355Z,101864.91
2019-02-16T00:26:52.141Z,101862.28
2019-02-16T00:28:27.164Z,101864.30
2019-02-16T00:30:02.205Z,101867.45
2019-02-16T00:31:37.271Z,101866.41
2019-02-16T00:33:12.078Z,101863.30
2019-02-16T00:34:47.120Z,101862.47
2019-02-16T00:36:21.917Z,101855.31
2019-02-16T00:37:56.987Z,101861.86
2019-02-16T00:39:32.021Z,101854.33
2019-02-16T00:41:06.835Z,101855.30
2019-02-16T00:42:41.887Z,101853.67
2019-02-16T00:44:16.952Z,101853.09
2019-02-16T00:45:51.825Z,101853.78
2019-02-16T00:47:26.892Z,101849.88
2019-02-16T00:49:01.942Z,101847.14
2019-02-16T00:50:36.746Z,101842.21
2019-02-16T00:52:11.827Z,101844.16
2019-02-16T00:53:46.630Z,101843.31
2019-02-16T00:55:21.659Z,101839.89
2019-02-16T00:56:56.457Z,101843.11
2019-02-16T00:58:31.813Z,101838.08
2019-02-16T01:00:08.602Z,101837.22
2019-02-16T01:01:43.656Z,101839.41
2019-02-16T01:03:18.463Z,101839.55
2019-02-16T01:04:53.310Z,101835.55
2019-02-16T01:06:28.364Z,101834.52
2019-02-16T01:08:03.400Z,101833.23
2019-02-16T01:09:38.488Z,101832.36
2019-02-16T01:11:13.819Z,101825.84
2019-02-16T01:12:48.864Z,101830.63
2019-02-16T01:14:23.949Z,101827.98
2019-02-16T01:15:58.755Z,101829.67
2019-02-16T01:17:33.863Z,101824.08
2019-02-16T01:19:08.924Z,101821.95
2019-02-16T01:20:43.993Z,101823.77
2019-02-16T01:22:18.796Z,101823.12
2019-02-16T01:23:54.083Z,101813.00
2019-02-16T01:25:29.624Z,101811.23
2019-02-16T01:27:04.436Z,101801.95
2019-02-16T01:28:39.234Z,101805.91
2019-02-16T01:30:14.517Z,101802.75
2019-02-16T01:31:49.359Z,101804.30
2019-02-16T01:33:24.179Z,101805.30
2019-02-16T01:34:59.481Z,101802.41
2019-02-16T01:36:34.521Z,101794.22
2019-02-16T01:38:09.362Z,101796.72
2019-02-16T01:39:44.147Z,101806.41
2019-02-16T01:41:19.436Z,101800.58
2019-02-16T01:42:54.469Z,101799.19
2019-02-16T01:44:29.593Z,101794.42
2019-02-16T01:46:04.414Z,101800.80
2019-02-16T01:47:39.224Z,101788.12
2019-02-16T01:49:14.022Z,101786.12
2019-02-16T01:50:48.891Z,101786.41
2019-02-16T01:52:23.963Z,101785.69
2019-02-16T01:53:59.273Z,101792.53
2019-02-16T01:55:34.091Z,101790.89
2019-02-16T01:57:09.279Z,101782.73
2019-02-16T01:58:44.567Z,101788.58
2019-02-16T02:00:19.707Z,101787.44
2019-02-16T02:01:54.504Z,101784.83
2019-02-16T02:03:29.340Z,101778.66
2019-02-16T02:05:04.577Z,101771.92
2019-02-16T02:06:39.633Z,101772.23
2019-02-16T02:08:14.449Z,101775.53
2019-02-16T02:09:49.268Z,101770.73
2019-02-16T02:11:24.326Z,101769.88
2019-02-16T02:12:59.640Z,101768.16
2019-02-16T02:14:34.859Z,101763.69
2019-02-16T02:16:09.660Z,101756.80
2019-02-16T02:17:44.556Z,101757.27
2019-02-16T02:19:19.367Z,101759.78
2019-02-16T02:20:54.441Z,101757.24
2019-02-16T02:22:29.504Z,101755.33
2019-02-16T02:24:04.468Z,101750.63
2019-02-16T02:25:39.528Z,101747.55
2019-02-16T02:27:14.325Z,101742.28
2019-02-16T02:28:49.146Z,101746.55
2019-02-16T02:30:23.984Z,101754.17
2019-02-16T02:31:59.266Z,101747.77
2019-02-16T02:33:34.393Z,101746.64
2019-02-16T02:35:09.221Z,101748.43
2019-02-16T02:36:44.018Z,101742.34
2019-02-16T02:38:19.059Z,101739.13
2019-02-16T02:39:53.880Z,101741.19
2019-02-16T02:41:28.929Z,101747.75
2019-02-16T02:43:03.749Z,101744.39
2019-02-16T02:44:38.564Z,101745.19
2019-02-16T02:46:13.364Z,101742.41
2019-02-16T02:47:48.182Z,101740.25
2019-02-16T02:49:23.261Z,101742.43
2019-02-16T02:50:58.060Z,101737.20
2019-02-16T02:52:32.861Z,101731.91
2019-02-16T02:54:07.917Z,101737.14
2019-02-16T02:55:42.966Z,101736.64
2019-02-16T02:57:18.271Z,101738.67
2019-02-16T02:58:53.062Z,101737.85
2019-02-16T03:00:28.444Z,101738.33
2019-02-16T03:02:03.259Z,101738.52
2019-02-16T03:03:38.048Z,101739.52
2019-02-16T03:05:12.981Z,101742.84
2019-02-16T03:06:48.083Z,101741.59
2019-02-16T03:08:23.232Z,101739.99
2019-02-16T03:09:58.026Z,101733.50
2019-02-16T03:11:32.830Z,101738.87
2019-02-16T03:13:07.888Z,101736.58
2019-02-16T03:14:42.971Z,101738.64
2019-02-16T03:16:17.840Z,101730.86
2019-02-16T03:17:52.655Z,101736.78
2019-02-16T03:19:27.924Z,101732.03
2019-02-16T03:21:02.969Z,101733.62
2019-02-16T03:23:16.199Z,101739.98
2019-02-16T03:24:50.882Z,101733.45
2019-02-16T03:26:55.662Z,101736.50
2019-02-16T03:28:54.529Z,101739.84
2019-02-16T03:30:51.104Z,101744.09
2019-02-16T03:32:36.339Z,101738.14
2019-02-16T03:34:21.090Z,101736.80
2019-02-16T03:36:27.494Z,101732.02
2019-02-16T03:38:23.941Z,101738.94
2019-02-16T03:39:58.330Z,101734.75
2019-02-16T03:41:32.859Z,101735.75
2019-02-16T03:43:07.462Z,101730.38
2019-02-16T03:44:41.859Z,101732.56
2019-02-16T03:46:16.548Z,101733.08
2019-02-16T03:47:51.438Z,101736.72
2019-02-16T03:49:26.127Z,101735.61
2019-02-16T03:51:01.079Z,101730.58
2019-02-16T03:52:35.722Z,101735.27
2019-02-16T03:54:10.343Z,101732.14
2019-02-16T03:55:44.791Z,101722.41
2019-02-16T03:57:19.566Z,101726.91
2019-02-16T03:58:54.017Z,101729.92
2019-02-16T04:00:28.409Z,101720.78
2019-02-16T04:02:03.030Z,101720.02
2019-02-16T04:03:37.423Z,101719.94
2019-02-16T04:05:11.929Z,101713.35
2019-02-16T04:06:46.311Z,101715.77
2019-02-16T04:08:21.214Z,101716.17
2019-02-16T04:09:55.584Z,101713.22
2019-02-16T04:11:30.023Z,101713.06
2019-02-16T04:13:04.413Z,101710.26
2019-02-16T04:14:38.854Z,101710.93
2019-02-16T04:16:13.491Z,101706.48
2019-02-16T04:17:48.123Z,101710.43
2019-02-16T04:19:22.577Z,101711.52
2019-02-16T04:20:57.322Z,101705.25
2019-02-16T04:22:31.943Z,101702.78
2019-02-16T04:24:06.592Z,101703.70
2019-02-16T04:25:41.463Z,101705.38
2019-02-16T04:27:16.175Z,101702.33
2019-02-16T04:28:51.341Z,101704.38
2019-02-16T04:30:26.011Z,101702.01
2019-02-16T04:32:01.059Z,101701.13
2019-02-16T04:33:35.501Z,101692.05
2019-02-16T04:35:09.881Z,101693.97
2019-02-16T04:36:44.252Z,101700.84
2019-02-16T04:38:18.890Z,101698.47
2019-02-16T04:39:53.535Z,101701.17
2019-02-16T04:41:28.356Z,101697.80
2019-02-16T04:43:02.983Z,101698.70
2019-02-16T04:44:37.922Z,101703.57
2019-02-16T04:46:12.347Z,101689.94
2019-02-16T04:47:46.993Z,101692.59
2019-02-16T04:49:21.478Z,101686.89
2019-02-16T04:50:55.848Z,101691.74
2019-02-16T04:52:35.003Z,101690.26
2019-02-16T04:54:06.618Z,101687.29
2019-02-16T04:55:41.081Z,101685.55
2019-02-16T04:57:15.703Z,101688.52
2019-02-16T04:58:50.079Z,101684.95
2019-02-16T05:00:24.537Z,101679.63
2019-02-16T05:01:58.942Z,101678.19
2019-02-16T05:03:33.462Z,101674.97
2019-02-16T05:05:08.246Z,101670.44
2019-02-16T05:06:42.621Z,101673.00
2019-02-16T05:08:17.325Z,101674.84
2019-02-16T05:09:51.854Z,101672.48
2019-02-16T05:11:26.240Z,101677.04
2019-02-16T05:13:00.854Z,101672.37
2019-02-16T05:14:35.578Z,101669.06
2019-02-16T05:16:10.219Z,101675.31
2019-02-16T05:17:44.591Z,101670.94
2019-02-16T05:19:19.603Z,101672.33
2019-02-16T05:20:54.247Z,101667.62
2019-02-16T05:22:28.684Z,101670.17
2019-02-16T05:24:03.178Z,101669.08
2019-02-16T05:25:38.040Z,101663.98
2019-02-16T05:27:12.422Z,101659.40
2019-02-16T05:28:47.047Z,101665.05
2019-02-16T05:30:21.478Z,101664.34
2019-02-16T05:31:55.871Z,101666.82
2019-02-16T05:33:30.507Z,101662.80
2019-02-16T05:35:05.375Z,101670.08
2019-02-16T05:36:39.970Z,101663.61
2019-02-16T05:38:14.710Z,101669.17
2019-02-16T05:39:49.320Z,101663.53
2019-02-16T05:41:23.778Z,101667.75
2019-02-16T05:42:58.190Z,101669.27
2019-02-16T05:44:32.633Z,101667.83
2019-02-16T05:46:07.028Z,101666.95
2019-02-16T05:47:41.742Z,101666.05
2019-02-16T05:49:16.349Z,101669.06
2019-02-16T05:50:50.796Z,101669.94
2019-02-16T05:52:25.418Z,101672.38
2019-02-16T05:54:00.270Z,101670.73
2019-02-16T05:55:35.126Z,101672.86
2019-02-16T05:57:09.507Z,101676.72
2019-02-16T05:58:44.456Z,101680.04
2019-02-16T06:00:21.127Z,101683.58
2019-02-16T06:01:55.575Z,101677.58
2019-02-16T06:03:29.963Z,101676.28
2019-02-16T06:05:04.604Z,101678.03
2019-02-16T06:06:39.035Z,101673.40
2019-02-16T06:08:13.439Z,101678.09
2019-02-16T06:09:48.224Z,101670.86
2019-02-16T06:11:22.991Z,101674.66
2019-02-16T06:12:57.366Z,101672.05
2019-02-16T06:14:32.318Z,101671.22
2019-02-16T06:16:06.814Z,101673.73
2019-02-16T06:17:41.454Z,101674.37
2019-02-16T06:19:15.859Z,101680.95
2019-02-16T06:20:50.538Z,101676.34
2019-02-16T06:22:24.900Z,101671.67
2019-02-16T06:23:59.319Z,101669.01
2019-02-16T06:25:33.942Z,101673.38
2019-02-16T06:27:08.313Z,101673.33
2019-02-16T06:28:43.190Z,101671.28
2019-02-16T06:30:17.578Z,101672.98
2019-02-16T06:31:52.129Z,101667.16
2019-02-16T06:33:26.481Z,101668.56
2019-02-16T06:35:14.642Z,101662.05
2019-02-16T06:36:49.554Z,101665.06
2019-02-16T06:38:24.750Z,101664.56
2019-02-16T06:39:59.127Z,101656.42
2019-02-16T06:41:33.539Z,101658.75
2019-02-16T06:43:08.416Z,101664.28
2019-02-16T06:44:42.962Z,101663.21
2019-02-16T06:46:18.152Z,101666.39
2019-02-16T06:47:52.826Z,101669.25
2019-02-16T06:49:27.209Z,101664.46
2019-02-16T06:51:02.014Z,101666.04
2019-02-16T06:52:36.951Z,101667.09
2019-02-16T06:54:11.782Z,101665.27
2019-02-16T06:55:51.107Z,101671.01
2019-02-16T06:57:28.982Z,101670.50
2019-02-16T06:59:04.453Z,101663.03
2019-02-16T07:00:39.240Z,101658.74
2019-02-16T07:02:14.192Z,101664.63
2019-02-16T07:03:48.738Z,101656.77
2019-02-16T07:05:23.398Z,101655.81
2019-02-16T07:06:58.123Z,101653.25
2019-02-16T07:08:33.211Z,101653.20
2019-02-16T07:10:08.350Z,101657.36
2019-02-16T07:11:42.736Z,101659.05
2019-02-16T07:13:17.175Z,101662.62
2019-02-16T07:14:52.202Z,101661.03
2019-02-16T07:16:49.316Z,101655.42
2019-02-16T07:18:33.770Z,101660.96
2019-02-16T07:20:09.359Z,101663.34
2019-02-16T07:21:44.419Z,101654.23
2019-02-16T07:23:22.437Z,101655.98
2019-02-16T07:24:55.739Z,101651.86
2019-02-16T07:26:30.538Z,101659.84
2019-02-16T07:28:05.829Z,101659.84
2019-02-16T07:29:40.661Z,101661.77
2019-02-16T07:31:16.003Z,101660.81
2019-02-16T07:32:51.099Z,101657.95
2019-02-16T07:34:25.996Z,101661.48
2019-02-16T07:36:00.785Z,101661.78
2019-02-16T07:37:35.575Z,101657.80
2019-02-16T07:39:10.432Z,101657.36
2019-02-16T07:40:45.498Z,101659.88
2019-02-16T07:42:20.775Z,101662.50
2019-02-16T07:44:23.645Z,101654.84
2019-02-16T07:46:07.258Z,101658.69
2019-02-16T07:48:00.989Z,101651.48
2019-02-16T07:49:54.304Z,101650.83
2019-02-16T07:51:41.020Z,101646.08
2019-02-16T07:53:38.177Z,101644.88
2019-02-16T07:55:20.701Z,101646.72
2019-02-16T07:57:14.903Z,101644.88
2019-02-16T07:58:59.029Z,101646.48
2019-02-16T08:00:41.064Z,101642.85
2019-02-16T08:02:23.541Z,101641.98
2019-02-16T08:04:24.193Z,101648.65
2019-02-16T08:06:16.653Z,101647.20
2019-02-16T08:08:09.132Z,101634.65
2019-02-16T08:09:55.792Z,101626.49
2019-02-16T08:11:49.885Z,101630.88
2019-02-16T08:13:52.748Z,101628.08
2019-02-16T08:15:45.231Z,101630.00
2019-02-16T08:17:27.389Z,101625.92
2019-02-16T08:19:19.979Z,101617.79
2019-02-16T08:21:13.771Z,101623.73
2019-02-16T08:22:59.015Z,101624.47
2019-02-16T08:24:59.763Z,101621.62
2019-02-16T08:26:52.564Z,101622.20
2019-02-16T08:28:35.666Z,101616.39
2019-02-16T08:30:29.582Z,101618.93
2019-02-16T08:32:42.231Z,101618.73
2019-02-16T08:34:26.579Z,101618.09
2019-02-16T08:36:19.459Z,101622.75
2019-02-16T08:38:02.893Z,101625.97
2019-02-16T08:39:49.285Z,101618.38
2019-02-16T08:41:46.155Z,101616.49
2019-02-16T08:43:41.110Z,101617.75
2019-02-16T08:45:38.165Z,101612.70
2019-02-16T08:47:37.546Z,101610.13
2019-02-16T08:49:23.502Z,101616.59
2019-02-16T08:51:09.171Z,101610.58
2019-02-16T08:53:07.328Z,101605.88
2019-02-16T08:55:00.299Z,101616.02
2019-02-16T08:56:52.371Z,101606.92
2019-02-16T08:58:49.385Z,101607.09
2019-02-16T09:00:43.535Z,101599.80
2019-02-16T09:02:24.149Z,101589.83
2019-02-16T09:04:23.139Z,101600.36
2019-02-16T09:06:20.052Z,101602.31
2019-02-16T09:08:10.826Z,101594.88
2019-02-16T09:10:14.157Z,101589.67
2019-02-16T09:12:08.509Z,101591.11
2019-02-16T09:13:55.703Z,101600.88
2019-02-16T09:16:02.060Z,101588.39
2019-02-16T09:18:01.236Z,101586.07
2019-02-16T09:20:05.169Z,101584.91
2019-02-16T09:21:57.844Z,101587.30
2019-02-16T09:23:39.683Z,101582.98
2019-02-16T09:25:31.357Z,101582.73
2019-02-16T09:27:24.029Z,101579.81
2019-02-16T09:29:06.005Z,101581.85
2019-02-16T09:30:51.060Z,101584.31
2019-02-16T09:32:54.691Z,101584.52
2019-02-16T09:34:40.107Z,101580.39
2019-02-16T09:36:28.214Z,101571.39
2019-02-16T09:38:34.081Z,101566.01
2019-02-16T09:40:26.674Z,101576.08
2019-02-16T09:42:07.956Z,101579.81
2019-02-16T09:44:00.565Z,101583.48
2019-02-16T09:46:03.583Z,101583.80
2019-02-16T09:48:02.143Z,101576.79
2019-02-16T09:49:49.851Z,101575.84
2019-02-16T09:51:43.664Z,101571.17
2019-02-16T09:53:33.462Z,101564.97
2019-02-16T09:55:23.382Z,101566.89
2019-02-16T09:57:29.621Z,101563.39
2019-02-16T09:59:09.949Z,101566.05
2019-02-16T10:01:03.755Z,101565.79
2019-02-16T10:02:48.121Z,101567.12
2019-02-16T10:04:40.911Z,101561.14
2019-02-16T10:06:41.444Z,101558.73
2019-02-16T10:08:32.896Z,101561.78
2019-02-16T10:10:26.012Z,101558.63
2019-02-16T10:12:21.015Z,101557.69
2019-02-16T10:14:13.755Z,101554.52
2019-02-16T10:16:10.658Z,101550.94
2019-02-16T10:18:19.739Z,101543.76
2019-02-16T10:20:04.354Z,101545.02
2019-02-16T10:21:59.003Z,101541.91
2019-02-16T10:23:56.084Z,101542.25
2019-02-16T10:25:40.279Z,101542.33
2019-02-16T10:27:37.086Z,101546.70
2019-02-16T10:29:40.115Z,101542.47
2019-02-16T10:31:32.027Z,101536.46
2019-02-16T10:33:12.661Z,101531.01
2019-02-16T10:34:56.789Z,101518.98
2019-02-16T10:36:49.230Z,101524.14
2019-02-16T10:38:42.019Z,101525.88
2019-02-16T10:40:38.942Z,101522.77
2019-02-16T10:42:24.724Z,101516.75
2019-02-16T10:44:16.150Z,101517.97
2019-02-16T10:46:11.030Z,101504.33
2019-02-16T10:48:03.925Z,101512.84
2019-02-16T10:50:13.183Z,101505.66
2019-02-16T10:52:09.987Z,101505.23
2019-02-16T10:54:06.605Z,101506.39
2019-02-16T10:55:59.596Z,101507.75
2019-02-16T10:57:42.419Z,101502.73
2019-02-16T10:59:22.279Z,101500.77
2019-02-16T11:01:05.031Z,101502.06
2019-02-16T11:02:52.063Z,101497.87
2019-02-16T11:04:38.267Z,101490.56
2019-02-16T11:06:29.638Z,101484.13
2019-02-16T11:08:12.010Z,101488.19
2019-02-16T11:09:52.049Z,101478.94
2019-02-16T11:11:37.266Z,101476.64
2019-02-16T11:13:25.631Z,101477.17
2019-02-16T11:15:18.295Z,101475.05
2019-02-16T11:17:11.323Z,101475.93
2019-02-16T11:18:59.085Z,101478.67
2019-02-16T11:20:52.800Z,101472.14
2019-02-16T11:22:34.678Z,101479.62
2019-02-16T11:24:19.195Z,101484.23
2019-02-16T11:26:05.874Z,101472.19
2019-02-16T11:27:48.589Z,101469.31
2019-02-16T11:29:37.868Z,101471.09
2019-02-16T11:31:20.761Z,101465.45
2019-02-16T11:33:07.579Z,101467.14
2019-02-16T11:34:54.492Z,101462.11
2019-02-16T11:36:35.252Z,101458.38
2019-02-16T11:38:29.776Z,101454.31
2019-02-16T11:40:24.790Z,101459.03
2019-02-16T11:42:17.258Z,101451.55
2019-02-16T11:44:12.374Z,101448.56
2019-02-16T11:46:12.385Z,101444.80
2019-02-16T11:48:00.767Z,101443.41
2019-02-16T11:49:54.967Z,101449.66
2019-02-16T11:51:47.923Z,101449.47
2019-02-16T11:53:40.605Z,101441.36
2019-02-16T11:55:33.347Z,101440.34
2019-02-16T11:57:28.529Z,101437.33
2019-02-16T11:59:20.908Z,101434.61
2019-02-16T12:01:03.355Z,101435.03
2019-02-16T12:02:50.079Z,101432.23
2019-02-16T12:04:39.953Z,101436.97
2019-02-16T12:06:24.016Z,101437.49
2019-02-16T12:08:12.232Z,101438.59
2019-02-16T12:10:06.021Z,101430.37
2019-02-16T12:12:15.177Z,101423.31
2019-02-16T12:14:10.843Z,101430.96
2019-02-16T12:18:20.490Z,101421.47
2019-02-16T12:20:04.251Z,101420.45
2019-02-16T12:22:36.402Z,101411.36
2019-02-16T12:25:05.667Z,101412.63
2019-02-16T12:28:00.554Z,101408.98
2019-02-16T12:30:02.237Z,101401.39
2019-02-16T12:32:01.099Z,101401.73
2019-02-16T12:33:56.924Z,101388.17
2019-02-16T12:35:56.954Z,101387.81
2019-02-16T12:38:00.188Z,101384.59
2019-02-16T12:40:14.171Z,101386.89
2019-02-16T12:42:07.182Z,101379.77
2019-02-16T12:43:53.871Z,101373.59
2019-02-16T12:45:50.622Z,101373.50
2019-02-16T12:47:27.779Z,101376.92
2019-02-16T12:49:33.739Z,101374.53
2019-02-16T12:51:39.332Z,101361.83
2019-02-16T12:53:32.637Z,101369.75
2019-02-16T12:55:36.337Z,101372.63
2019-02-16T12:57:39.800Z,101369.61
2019-02-16T12:59:49.793Z,101363.92
2019-02-16T13:01:47.960Z,101361.98
2019-02-16T13:03:45.096Z,101355.77
2019-02-16T13:05:31.606Z,101356.06
2019-02-16T13:07:47.725Z,101360.53
2019-02-16T13:09:58.716Z,101352.40
2019-02-16T13:12:38.608Z,101348.97
2019-02-16T13:14:44.965Z,101345.01
2019-02-16T13:16:35.886Z,101338.78
2019-02-16T13:18:29.017Z,101338.41
2019-02-16T13:20:12.923Z,101340.30
2019-02-16T13:21:56.246Z,101340.55
2019-02-16T13:23:42.430Z,101333.38
2019-02-16T13:25:42.340Z,101334.70
2019-02-16T13:27:34.579Z,101337.58
2019-02-16T13:29:31.939Z,101330.11
2019-02-16T13:31:27.492Z,101327.60
2019-02-16T13:33:21.622Z,101336.33
2019-02-16T13:35:15.890Z,101340.57
2019-02-16T13:37:12.744Z,101337.21
2019-02-16T13:39:13.451Z,101332.42
2019-02-16T13:41:07.238Z,101333.88
2019-02-16T13:42:54.216Z,101327.73
2019-02-16T13:44:40.726Z,101327.06
2019-02-16T13:46:27.890Z,101322.38
2019-02-16T13:48:11.594Z,101322.89
2019-02-16T13:49:52.837Z,101323.48
2019-02-16T13:51:56.161Z,101321.98
2019-02-16T13:53:47.696Z,101316.75
2019-02-16T13:55:33.453Z,101314.97
2019-02-16T13:57:22.339Z,101311.05
2019-02-16T13:59:25.446Z,101310.29
2019-02-16T14:01:08.349Z,101302.02
2019-02-16T14:03:00.864Z,101305.77
2019-02-16T14:04:53.473Z,101303.06
2019-02-16T14:06:44.043Z,101302.16
2019-02-16T14:08:46.987Z,101301.08
2019-02-16T14:10:56.861Z,101297.33
2019-02-16T14:12:49.424Z,101292.66
2019-02-16T14:14:52.822Z,101295.34
2019-02-16T14:16:34.835Z,101292.75
2019-02-16T14:18:09.621Z,101292.22
2019-02-16T14:19:45.295Z,101285.91
2019-02-16T14:21:20.449Z,101284.90
2019-02-16T14:23:01.005Z,101281.20
2019-02-16T14:24:42.494Z,101286.75
2019-02-16T14:26:18.219Z,101286.16
2019-02-16T14:27:53.041Z,101283.83
2019-02-16T14:29:29.338Z,101281.41
2019-02-16T14:31:04.396Z,101279.45
2019-02-16T14:32:39.408Z,101284.55
2019-02-16T14:34:14.460Z,101283.30
2019-02-16T14:35:49.550Z,101279.09
2019-02-16T14:37:46.446Z,101282.20
2019-02-16T14:39:29.914Z,101272.25
2019-02-16T14:41:09.387Z,101274.06
2019-02-16T14:42:45.014Z,101279.59
2019-02-16T14:44:19.814Z,101278.05
2019-02-16T14:45:54.871Z,101273.79
2019-02-16T14:47:30.804Z,101272.41
2019-02-16T14:49:06.167Z,101274.66
2019-02-16T14:50:41.194Z,101267.73
2019-02-16T14:52:16.815Z,101275.72
2019-02-16T14:53:52.349Z,101276.42
2019-02-16T14:55:27.799Z,101272.36
2019-02-16T14:57:02.590Z,101278.09
2019-02-16T14:58:38.832Z,101272.39
2019-02-16T15:00:13.794Z,101272.09
2019-02-16T15:01:48.589Z,101267.92
2019-02-16T15:03:23.852Z,101262.81
2019-02-16T15:04:58.889Z,101270.52
2019-02-16T15:06:33.722Z,101269.83
2019-02-16T15:08:08.768Z,101267.30
2019-02-16T15:09:44.185Z,101259.80
2019-02-16T15:11:19.296Z,101264.04
2019-02-16T15:12:54.500Z,101260.73
2019-02-16T15:14:29.613Z,101259.06
2019-02-16T15:16:05.528Z,101261.61
2019-02-16T15:17:40.587Z,101260.02
2019-02-16T15:19:16.559Z,101258.27
2019-02-16T15:20:51.729Z,101261.13
2019-02-16T15:22:26.609Z,101267.21
2019-02-16T15:24:01.672Z,101267.61
2019-02-16T15:25:46.254Z,101262.91
2019-02-16T15:27:21.857Z,101276.22
2019-02-16T15:28:56.680Z,101275.83
2019-02-16T15:30:31.986Z,101279.20
2019-02-16T15:32:07.304Z,101279.64
2019-02-16T15:33:42.885Z,101285.89
2019-02-16T15:35:20.902Z,101279.28
2019-02-16T15:36:55.927Z,101283.05
2019-02-16T15:38:30.755Z,101282.92
2019-02-16T15:40:20.685Z,101289.66
2019-02-16T15:42:03.024Z,101289.32
2019-02-16T15:43:49.680Z,101295.88
2019-02-16T15:45:24.990Z,101299.88
2019-02-16T15:46:59.420Z,101300.53
2019-02-16T15:48:34.418Z,101299.70
2019-02-16T15:50:12.301Z,101302.13
2019-02-16T15:51:47.105Z,101299.50
2019-02-16T15:53:22.996Z,101299.89
2019-02-16T15:54:57.958Z,101303.19
2019-02-16T15:56:34.915Z,101304.77
2019-02-16T15:58:10.256Z,101302.16
2019-02-16T15:59:45.296Z,101301.52
2019-02-16T16:01:20.383Z,101306.30
2019-02-16T16:02:55.204Z,101305.43
2019-02-16T16:04:30.256Z,101310.03
2019-02-16T16:06:05.870Z,101314.75
2019-02-16T16:07:43.336Z,101311.78
2019-02-16T16:09:36.302Z,101311.34
2019-02-16T16:11:26.620Z,101313.26
2019-02-16T16:13:20.444Z,101318.59
2019-02-16T16:15:09.712Z,101310.19
2019-02-16T16:17:06.442Z,101315.22
2019-02-16T16:19:06.176Z,101315.88
2019-02-16T16:20:48.339Z,101315.94
2019-02-16T16:22:33.085Z,101326.11
2019-02-16T16:24:29.792Z,101325.84
2019-02-16T16:26:24.383Z,101331.41
2019-02-16T16:28:30.758Z,101331.03
2019-02-16T16:30:31.817Z,101334.25
2019-02-16T16:32:35.141Z,101334.92
2019-02-16T16:34:28.068Z,101336.39
2019-02-16T16:36:18.313Z,101338.89
2019-02-16T16:38:00.143Z,101339.64
2019-02-16T16:39:54.472Z,101334.19
2019-02-16T16:41:36.093Z,101338.44
2019-02-16T16:43:39.128Z,101337.12
2019-02-16T16:45:33.207Z,101333.45
2019-02-16T16:47:27.160Z,101338.34
2019-02-16T16:49:20.050Z,101337.16
2019-02-16T16:51:09.639Z,101346.46
2019-02-16T16:52:55.186Z,101342.32
2019-02-16T16:55:01.703Z,101346.00
2019-02-16T16:56:54.684Z,101344.09
2019-02-16T16:58:38.911Z,101338.58
2019-02-16T17:00:27.932Z,101337.83
2019-02-16T17:08:14.908Z,101347.05
2019-02-16T17:09:59.075Z,101348.01
2019-02-16T17:11:55.340Z,101358.84
2019-02-16T17:13:44.262Z,101353.90
2019-02-16T17:15:38.626Z,101359.17
2019-02-16T17:17:38.433Z,101360.63
2019-02-16T17:19:28.879Z,101357.73
2019-02-16T17:21:31.919Z,101354.95
2019-02-16T17:23:31.758Z,101353.62
2019-02-16T17:25:21.652Z,101349.77
2019-02-16T17:27:14.435Z,101358.17
2019-02-16T17:29:24.397Z,101350.27
2019-02-16T17:31:10.767Z,101351.28
2019-02-16T17:33:17.286Z,101351.30
2019-02-16T17:35:17.683Z,101355.47
2019-02-16T17:37:23.833Z,101359.01
2019-02-16T17:39:15.824Z,101364.53
2019-02-16T17:41:19.692Z,101357.88
2019-02-16T17:43:04.048Z,101355.00
2019-02-16T17:45:01.549Z,101357.78
2019-02-16T17:46:55.778Z,101354.50
2019-02-16T17:48:49.333Z,101353.24
2019-02-16T17:50:31.382Z,101352.78
2019-02-16T17:52:28.235Z,101347.09
2019-02-16T17:54:26.459Z,101356.51
2019-02-16T17:56:08.774Z,101355.44
2019-02-16T17:57:49.906Z,101356.38
2019-02-16T17:59:49.546Z,101365.89
2019-02-16T18:01:52.750Z,101357.50
2019-02-16T18:03:48.510Z,101364.03
2019-02-16T18:05:41.647Z,101362.13
2019-02-16T18:07:26.800Z,101363.82
2019-02-16T18:09:20.519Z,101350.87
2019-02-16T18:11:09.502Z,101357.19
2019-02-16T18:13:06.921Z,101353.97
2019-02-16T18:14:53.004Z,101361.87
2019-02-16T18:16:53.484Z,101363.39
2019-02-16T18:18:38.192Z,101366.41
2019-02-16T18:20:28.541Z,101360.88
2019-02-16T18:22:22.179Z,101365.66
2019-02-16T18:24:17.867Z,101365.07
2019-02-16T18:26:05.827Z,101357.45
2019-02-16T18:27:59.752Z,101363.34
2019-02-16T18:29:52.089Z,101362.09
2019-02-16T18:31:48.937Z,101356.43
2019-02-16T18:33:49.035Z,101361.59
2019-02-16T18:35:43.635Z,101359.50
2019-02-16T18:37:25.838Z,101365.69
2019-02-16T18:39:18.266Z,101367.20
2019-02-16T18:41:10.370Z,101371.77
2019-02-16T18:42:58.255Z,101374.86
2019-02-16T18:44:52.370Z,101374.31
2019-02-16T18:46:57.945Z,101367.53
2019-02-16T18:48:57.783Z,101364.31
2019-02-16T18:50:44.740Z,101363.42
2019-02-16T18:52:38.306Z,101362.19
2019-02-16T18:54:19.215Z,101361.80
2019-02-16T18:56:08.128Z,101356.42
2019-02-16T18:58:11.261Z,101365.23
2019-02-16T19:00:05.285Z,101364.95
2019-02-16T19:02:01.809Z,101361.64
2019-02-16T19:04:01.490Z,101363.84
2019-02-16T19:05:43.717Z,101360.81
2019-02-16T19:07:37.165Z,101361.55
2019-02-16T19:09:34.847Z,101367.02
2019-02-16T19:11:29.718Z,101369.83
2019-02-16T19:13:14.579Z,101369.09
2019-02-16T19:14:58.628Z,101366.59
2019-02-16T19:16:43.672Z,101366.39
2019-02-16T19:18:26.241Z,101361.63
2019-02-16T19:20:26.082Z,101366.06
2019-02-16T19:22:13.552Z,101364.05
2019-02-16T19:24:00.936Z,101369.73
2019-02-16T19:26:00.562Z,101373.44
2019-02-16T19:27:54.023Z,101367.50
2019-02-16T19:29:47.481Z,101367.42
2019-02-16T19:31:29.433Z,101360.11
2019-02-16T19:33:09.849Z,101359.77
2019-02-16T19:34:57.830Z,101363.17
2019-02-16T19:36:47.376Z,101363.80
2019-02-16T19:38:50.410Z,101368.45
2019-02-16T19:40:37.160Z,101365.23
2019-02-16T19:42:20.194Z,101366.19
2019-02-16T19:44:13.050Z,101358.87
2019-02-16T19:45:56.612Z,101364.66
2019-02-16T19:47:45.655Z,101360.47
2019-02-16T19:49:29.609Z,101361.33
2019-02-16T19:51:29.635Z,101360.29
2019-02-16T19:53:25.097Z,101356.93
2019-02-16T19:55:17.542Z,101361.05
2019-02-16T19:56:58.612Z,101358.45